Time;durP1;ratioP1;P1;durP2;ratioP2;P2;SDS_P1;SDS_P2;PMS_P1;PMS_P2;Temp;Humidity;BMP_temperature;BMP_pressure;BME280_temperature;BME280_humidity;BME280_pressure;Samples;Min_cycle;Max_cycle;Signal;HPM_P1;HPM_P2
2020/05/30 00:00:16;;;;;;;6.6;5.6;;;;;;;11.43;74.35938;963.296;;;;
2020/05/30 00:02:44;;;;;;;6.3;5.5;;;;;;;11.51;74.02637;963.2647;;;;
2020/05/30 00:05:17;;;;;;;6.2;5.6;;;;;;;11.46;73.91504;963.2434;;;;
2020/05/30 00:07:35;;;;;;;7.4;5.8;;;;;;;11.45;74.02734;963.2544;;;;
2020/05/30 00:10:00;;;;;;;6.4;5.6;;;;;;;11.33;74.84863;963.2216;;;;
2020/05/30 00:12:48;;;;;;;8.1;5.7;;;;;;;11.3;74.55566;963.2177;;;;
2020/05/30 00:14:57;;;;;;;7;5.6;;;;;;;11.27;74.45703;963.2178;;;;
2020/05/30 00:17:23;;;;;;;6.7;6;;;;;;;11.25;74.57129;963.1899;;;;
2020/05/30 00:20:08;;;;;;;6.8;5.8;;;;;;;11.25;74.67188;963.2067;;;;
2020/05/30 00:22:21;;;;;;;6.8;5.7;;;;;;;11.24;74.45313;963.1707;;;;
2020/05/30 00:27:21;;;;;;;6.3;5.5;;;;;;;11.13;74.57227;963.1749;;;;
2020/05/30 00:29:28;;;;;;;7;5.7;;;;;;;11.23;74;963.0955;;;;
2020/05/30 00:31:53;;;;;;;6.9;6.2;;;;;;;11.09;74.76074;963.084;;;;
2020/05/30 00:34:19;;;;;;;7.1;6.2;;;;;;;11.04;75.19043;963.0848;;;;
2020/05/30 00:36:44;;;;;;;6.8;6.1;;;;;;;10.96;75.29199;962.9941;;;;
2020/05/30 00:39:09;;;;;;;7.3;6.4;;;;;;;10.86;75.89551;962.9592;;;;
2020/05/30 00:41:34;;;;;;;8.5;6.1;;;;;;;10.9;75.8457;962.9405;;;;
2020/05/30 00:43:59;;;;;;;8.2;6.3;;;;;;;10.93;75.43555;962.9036;;;;
2020/05/30 00:46:24;;;;;;;7.3;6.2;;;;;;;11.02;74.93262;962.9244;;;;
2020/05/30 00:48:49;;;;;;;6.1;5.4;;;;;;;11.09;74.2998;962.8851;;;;
2020/05/30 00:51:15;;;;;;;7.6;6.5;;;;;;;10.79;75.74609;962.8881;;;;
2020/05/30 00:53:40;;;;;;;7.1;6.4;;;;;;;10.74;76.04785;962.8708;;;;
2020/05/30 00:56:06;;;;;;;7.5;6.7;;;;;;;10.53;77.26563;962.8759;;;;
2020/05/30 00:58:31;;;;;;;7;6.3;;;;;;;10.54;76.9668;962.8373;;;;
2020/05/30 01:00:56;;;;;;;7.2;6.5;;;;;;;10.38;77.2041;962.8359;;;;
2020/05/30 01:03:27;;;;;;;7.1;6.2;;;;;;;10.47;76.17285;962.8049;;;;
2020/05/30 01:05:47;;;;;;;6.3;5.7;;;;;;;10.47;75.71289;962.8195;;;;
2020/05/30 01:10:39;;;;;;;6.7;5.8;;;;;;;10.41;75.24121;962.7581;;;;
2020/05/30 01:13:05;;;;;;;6.2;5.6;;;;;;;10.42;73.74707;962.7594;;;;
2020/05/30 01:17:55;;;;;;;5.6;5;;;;;;;10.4;73.57324;962.7352;;;;
2020/05/30 01:20:21;;;;;;;5.8;4.7;;;;;;;10.3;73.15234;962.7972;;;;
2020/05/30 01:22:46;;;;;;;6.3;4.6;;;;;;;10.32;72.45508;962.7106;;;;
2020/05/30 01:25:13;;;;;;;5.8;4.2;;;;;;;10.31;71.68164;962.7109;;;;
2020/05/30 01:27:38;;;;;;;5.7;4.3;;;;;;;10.31;71.30078;962.7313;;;;
2020/05/30 01:30:03;;;;;;;4.7;3.8;;;;;;;10.36;70.27441;962.7286;;;;
2020/05/30 01:32:28;;;;;;;4.6;3.8;;;;;;;10.42;70.34375;962.6992;;;;
2020/05/30 01:37:20;;;;;;;4.8;3.7;;;;;;;10.41;70.15625;962.6973;;;;
2020/05/30 01:39:46;;;;;;;4.7;3.8;;;;;;;10.34;70.11133;962.6458;;;;
2020/05/30 01:43:11;;;;;;;5.5;4.1;;;;;;;10.45;69.57715;962.7056;;;;
2020/05/30 01:44:37;;;;;;;4.3;3.9;;;;;;;10.33;70.22559;962.6448;;;;
2020/05/30 01:47:07;;;;;;;5.1;4.3;;;;;;;10.32;70.99414;962.5851;;;;
2020/05/30 01:50:12;;;;;;;4.6;3.9;;;;;;;10.33;69.89063;962.5567;;;;
2020/05/30 01:51:56;;;;;;;3.7;3.3;;;;;;;10.3;68.55176;962.5692;;;;
2020/05/30 01:54:17;;;;;;;3.6;3.1;;;;;;;10.32;68.51953;962.5701;;;;
2020/05/30 01:56:42;;;;;;;4.8;3.4;;;;;;;10.43;68.13574;962.5941;;;;
2020/05/30 01:59:07;;;;;;;3.9;3.4;;;;;;;10.45;67.81641;962.5223;;;;
2020/05/30 02:01:34;;;;;;;3.4;2.8;;;;;;;10.46;68.01367;962.5461;;;;
2020/05/30 02:03:58;;;;;;;4.1;2.9;;;;;;;10.44;67.95117;962.5568;;;;
2020/05/30 02:06:35;;;;;;;4.5;3;;;;;;;10.29;68.35449;962.5372;;;;
2020/05/30 02:08:50;;;;;;;3.8;3;;;;;;;10.27;68.20215;962.4861;;;;
2020/05/30 02:18:33;;;;;;;3.8;3.3;;;;;;;10.16;69.40234;962.4389;;;;
2020/05/30 02:20:54;;;;;;;3.5;3.2;;;;;;;10.17;68.85352;962.4451;;;;
2020/05/30 02:23:28;;;;;;;5.4;3.1;;;;;;;10.01;69.97754;962.4213;;;;
2020/05/30 02:25:45;;;;;;;3.7;3.3;;;;;;;9.91;69.91406;962.4131;;;;
2020/05/30 02:28:10;;;;;;;4.1;3.3;;;;;;;9.76;70.38379;962.4457;;;;
2020/05/30 02:30:36;;;;;;;4.1;3.1;;;;;;;9.81;70.07031;962.4208;;;;
2020/05/30 02:33:03;;;;;;;3.8;3.1;;;;;;;9.77;70.17969;962.4135;;;;
2020/05/30 02:35:37;;;;;;;3.7;3.2;;;;;;;9.85;70.00879;962.3684;;;;
2020/05/30 02:38:05;;;;;;;4.2;3.1;;;;;;;9.73;70.54004;962.358;;;;
2020/05/30 02:40:20;;;;;;;5.3;3.3;;;;;;;9.75;70.29102;962.3444;;;;
2020/05/30 02:42:47;;;;;;;4.2;3.4;;;;;;;9.63;71.25879;962.3762;;;;
2020/05/30 02:47:49;;;;;;;5.4;3.8;;;;;;;9.49;71.50098;962.3392;;;;
2020/05/30 02:50:04;;;;;;;3.6;3.3;;;;;;;9.48;71.80762;962.3826;;;;
2020/05/30 02:53:28;;;;;;;4.1;3.2;;;;;;;9.42;72.16406;962.4012;;;;
2020/05/30 02:55:53;;;;;;;5;3.3;;;;;;;9.42;72.13184;962.3895;;;;
2020/05/30 02:58:19;;;;;;;4.8;3.4;;;;;;;9.44;72.14551;962.3882;;;;
2020/05/30 03:03:14;;;;;;;3.7;2.8;;;;;;;9.4;70.66895;962.3416;;;;
2020/05/30 03:05:34;;;;;;;3.1;2.8;;;;;;;9.35;70.62793;962.3043;;;;
2020/05/30 03:08:24;;;;;;;3.5;2.6;;;;;;;9.34;70.85449;962.348;;;;
2020/05/30 03:10:33;;;;;;;4.1;3;;;;;;;9.36;70.59473;962.3301;;;;
2020/05/30 03:13:17;;;;;;;3.2;2.6;;;;;;;9.42;69.92773;962.3834;;;;
2020/05/30 03:19:03;;;;;;;3.2;2.8;;;;;;;9.45;70.01074;962.3582;;;;
2020/05/30 03:20:26;;;;;;;2.6;2.4;;;;;;;9.52;69.74805;962.3684;;;;
2020/05/30 03:22:41;;;;;;;3.3;2.2;;;;;;;9.59;69.18555;962.3101;;;;
2020/05/30 03:27:31;;;;;;;3.3;2.4;;;;;;;9.22;69.62012;962.3886;;;;
2020/05/30 03:32:25;;;;;;;3.4;2.2;;;;;;;9.25;69.44141;962.3707;;;;
2020/05/30 03:34:50;;;;;;;2.9;2.2;;;;;;;9.25;69.6709;962.3633;;;;
2020/05/30 03:37:22;;;;;;;3.2;2.2;;;;;;;9.28;69.5498;962.3423;;;;
2020/05/30 03:42:06;;;;;;;2.8;2.1;;;;;;;9.12;69.92383;962.3431;;;;
2020/05/30 03:44:31;;;;;;;3.8;2.2;;;;;;;9.3;68.98926;962.3482;;;;
2020/05/30 03:49:40;;;;;;;2.8;2.2;;;;;;;9.24;68.86621;962.3681;;;;
2020/05/30 03:51:49;;;;;;;3.8;1.9;;;;;;;9.35;68.25195;962.375;;;;
2020/05/30 03:54:25;;;;;;;4.1;2.2;;;;;;;9.42;68.33105;962.3508;;;;
2020/05/30 03:59:10;;;;;;;3.2;2.2;;;;;;;9.39;67.86719;962.387;;;;
2020/05/30 04:02:42;;;;;;;4.6;2.1;;;;;;;9.29;67.88574;962.3897;;;;
2020/05/30 04:05:03;;;;;;;3.2;2.4;;;;;;;9.23;68.37109;962.3839;;;;
2020/05/30 04:07:33;;;;;;;3.4;2;;;;;;;9.31;67.85547;962.4122;;;;
2020/05/30 04:17:52;;;;;;;3.3;2;;;;;;;9.31;67.90137;962.4512;;;;
2020/05/30 04:20:04;;;;;;;3.3;2;;;;;;;9.28;68.25293;962.4066;;;;
2020/05/30 04:37:10;;;;;;;2.8;1.7;;;;;;;9.6;66.79883;962.4205;;;;
2020/05/30 04:39:53;;;;;;;2.7;1.7;;;;;;;9.44;67.65723;962.4084;;;;
2020/05/30 04:42:06;;;;;;;2.9;1.8;;;;;;;9.53;67.67188;962.416;;;;
2020/05/30 04:44:30;;;;;;;3.4;1.7;;;;;;;9.52;68.01465;962.4213;;;;
2020/05/30 04:49:29;;;;;;;3.9;1.9;;;;;;;9.68;66.53418;962.4703;;;;
2020/05/30 04:51:39;;;;;;;2.5;1.5;;;;;;;9.74;66.0957;962.4801;;;;
2020/05/30 04:55:07;;;;;;;2.9;1.7;;;;;;;9.83;65.61719;962.5005;;;;
2020/05/30 04:56:28;;;;;;;3.4;1.6;;;;;;;9.87;66.00098;962.4903;;;;
2020/05/30 04:58:52;;;;;;;2.5;1.6;;;;;;;9.9;66.36133;962.4517;;;;
2020/05/30 05:08:42;;;;;;;2.5;1.5;;;;;;;10.26;65.09473;962.4723;;;;
2020/05/30 05:11:08;;;;;;;3.5;1.8;;;;;;;10.27;65.74121;962.4763;;;;
2020/05/30 05:13:40;;;;;;;2.6;1.8;;;;;;;10.29;66.44531;962.5019;;;;
2020/05/30 05:25:25;;;;;;;3.8;1.8;;;;;;;10.48;64.2998;962.5662;;;;
2020/05/30 05:28:19;;;;;;;3.7;1.7;;;;;;;10.65;64.90039;962.5292;;;;
2020/05/30 05:30:25;;;;;;;2.7;1.6;;;;;;;10.65;64.54395;962.519;;;;
2020/05/30 05:34:22;;;;;;;3.2;1.6;;;;;;;10.73;63.78418;962.5678;;;;
2020/05/30 05:38:34;;;;;;;3.6;1.5;;;;;;;10.9;63.08398;962.5287;;;;
2020/05/30 05:40:11;;;;;;;2.7;1.6;;;;;;;11.02;63.08887;962.5778;;;;
2020/05/30 05:42:28;;;;;;;2.4;1.4;;;;;;;11.28;63.02344;962.5101;;;;
2020/05/30 05:44:51;;;;;;;2.4;1.6;;;;;;;11.32;63.89258;962.5231;;;;
2020/05/30 05:47:22;;;;;;;2.9;1.6;;;;;;;11.3;63.95996;962.4908;;;;
2020/05/30 05:52:06;;;;;;;3.4;1.6;;;;;;;11.48;64.35645;962.4659;;;;
2020/05/30 05:54:34;;;;;;;2.2;1.6;;;;;;;11.71;63.23535;962.486;;;;
2020/05/30 05:56:55;;;;;;;3;1.4;;;;;;;11.83;61.72949;962.4687;;;;
2020/05/30 05:59:20;;;;;;;2.8;1.5;;;;;;;11.8;61.47266;962.4681;;;;
2020/05/30 06:01:45;;;;;;;2.7;1.3;;;;;;;11.8;61.58691;962.4526;;;;
2020/05/30 06:04:10;;;;;;;3.3;1.5;;;;;;;11.86;61.70117;962.4565;;;;
2020/05/30 06:06:35;;;;;;;2.8;1.4;;;;;;;11.84;61.1084;962.508;;;;
2020/05/30 06:09:01;;;;;;;2.4;1.4;;;;;;;12.11;60.64941;962.4871;;;;
2020/05/30 06:11:26;;;;;;;2.6;1.4;;;;;;;12.25;61.03906;962.4667;;;;
2020/05/30 06:13:52;;;;;;;3.1;1.5;;;;;;;12.3;60.37695;962.5053;;;;
2020/05/30 06:16:17;;;;;;;2.5;1.5;;;;;;;12.46;59.94727;962.4916;;;;
2020/05/30 06:19:32;;;;;;;2.2;1.2;;;;;;;12.54;60.00391;962.502;;;;
2020/05/30 06:21:09;;;;;;;2.7;1.3;;;;;;;12.57;59.92676;962.4877;;;;
2020/05/30 06:23:34;;;;;;;2.8;1.2;;;;;;;12.61;58.42871;962.4785;;;;
2020/05/30 06:25:59;;;;;;;2.2;1.4;;;;;;;12.76;58.65723;962.4595;;;;
2020/05/30 06:28:24;;;;;;;2.7;1.4;;;;;;;12.64;58.42285;962.4445;;;;
2020/05/30 06:30:50;;;;;;;1.5;1.1;;;;;;;12.58;60.32129;962.3978;;;;
2020/05/30 06:33:15;;;;;;;2.5;1.6;;;;;;;12.68;59.89551;962.3681;;;;
2020/05/30 06:35:41;;;;;;;3.5;1.5;;;;;;;12.67;58.64648;962.4483;;;;
2020/05/30 06:38:06;;;;;;;2.1;1.4;;;;;;;12.48;58.36621;962.4355;;;;
2020/05/30 06:40:32;;;;;;;4.1;1.6;;;;;;;12.52;59.26074;962.4941;;;;
2020/05/30 06:45:22;;;;;;;2.8;1.5;;;;;;;12.71;58.04883;962.5215;;;;
2020/05/30 06:48:00;;;;;;;2.2;1.5;;;;;;;12.74;58.83008;962.5837;;;;
2020/05/30 06:50:20;;;;;;;1.7;1.4;;;;;;;12.92;57.11719;962.5737;;;;
2020/05/30 06:52:50;;;;;;;3.5;1.6;;;;;;;12.9;58.14453;962.5786;;;;
2020/05/30 06:55:05;;;;;;;2.7;1.5;;;;;;;13.12;58.26563;962.535;;;;
2020/05/30 06:57:29;;;;;;;5.9;1.6;;;;;;;13.13;58.55859;962.5641;;;;
2020/05/30 06:59:55;;;;;;;3.5;1.7;;;;;;;13.21;57.25879;962.5731;;;;
2020/05/30 07:02:28;;;;;;;2.8;1.5;;;;;;;13.32;57.5293;962.5668;;;;
2020/05/30 07:04:46;;;;;;;3.7;1.6;;;;;;;13.32;57.1582;962.6021;;;;
2020/05/30 07:07:12;;;;;;;2.3;1.5;;;;;;;13.3;58.00195;962.5869;;;;
2020/05/30 07:09:37;;;;;;;2.7;1.5;;;;;;;13.46;56.59766;962.6572;;;;
2020/05/30 07:12:04;;;;;;;2.3;1.4;;;;;;;13.56;56.37891;962.7067;;;;
2020/05/30 07:14:29;;;;;;;7.4;1.6;;;;;;;13.5;56.69629;962.7558;;;;
2020/05/30 07:16:56;;;;;;;2.6;1.2;;;;;;;13.26;56.16602;962.7068;;;;
2020/05/30 07:20:07;;;;;;;2.5;1.3;;;;;;;13.29;58.20898;962.6368;;;;
2020/05/30 07:21:49;;;;;;;2.9;1.4;;;;;;;13.3;56.24121;962.6213;;;;
2020/05/30 07:24:30;;;;;;;2.5;1.4;;;;;;;13.19;55.96094;962.5772;;;;
2020/05/30 07:26:37;;;;;;;2.7;1.4;;;;;;;13.3;57.37598;962.5452;;;;
2020/05/30 07:31:27;;;;;;;2.3;1.3;;;;;;;13.61;55.55078;962.5236;;;;
2020/05/30 07:33:56;;;;;;;2.8;1.4;;;;;;;13.42;55.27148;962.5148;;;;
2020/05/30 07:36:26;;;;;;;2.7;1.2;;;;;;;13.55;56.55176;962.545;;;;
2020/05/30 07:39:27;;;;;;;2.6;1.1;;;;;;;13.61;54.98242;962.4973;;;;
2020/05/30 07:41:11;;;;;;;3.1;1.4;;;;;;;13.76;55.99902;962.472;;;;
2020/05/30 07:43:37;;;;;;;4;1.1;;;;;;;13.81;54.93848;962.4736;;;;
2020/05/30 07:46:06;;;;;;;3.6;1.2;;;;;;;13.75;54.87305;962.5016;;;;
2020/05/30 07:48:39;;;;;;;4.5;1.3;;;;;;;13.83;54.41797;962.4207;;;;
2020/05/30 07:50:57;;;;;;;1.6;1.1;;;;;;;13.68;54.06445;962.4272;;;;
2020/05/30 07:53:30;;;;;;;3.5;1.2;;;;;;;13.67;55.26758;962.4891;;;;
2020/05/30 08:03:03;;;;;;;2.9;1.4;;;;;;;13.94;54.72363;962.3728;;;;
2020/05/30 08:08:13;;;;;;;1.9;1.1;;;;;;;14.03;55.45313;962.3212;;;;
2020/05/30 08:20:18;;;;;;;3.6;1.2;;;;;;;14.19;55.10254;962.2383;;;;
2020/05/30 08:22:20;;;;;;;3.1;2;;;;;;;14.21;52.64453;962.3066;;;;
2020/05/30 08:24:46;;;;;;;2.8;1.9;;;;;;;14.07;52.86035;962.2961;;;;
2020/05/30 08:27:11;;;;;;;4.8;2;;;;;;;14.19;53.4082;962.3259;;;;
2020/05/30 08:29:51;;;;;;;4.3;2.9;;;;;;;14.14;53.06445;962.3401;;;;
2020/05/30 08:32:05;;;;;;;5.3;3.1;;;;;;;14.39;54.83789;962.3259;;;;
2020/05/30 08:34:32;;;;;;;3.9;2.7;;;;;;;14.5;53.22559;962.322;;;;
2020/05/30 08:36:52;;;;;;;5.5;4;;;;;;;14.34;54.44824;962.2938;;;;
2020/05/30 08:39:17;;;;;;;6.1;3.9;;;;;;;14.21;54.17578;962.3312;;;;
2020/05/30 08:44:07;;;;;;;5.3;3.2;;;;;;;14.22;53.48145;962.3558;;;;
2020/05/30 08:46:44;;;;;;;6.1;4;;;;;;;14.19;53.38477;962.3104;;;;
2020/05/30 08:49:01;;;;;;;4.5;3.6;;;;;;;14.08;54.58984;962.3273;;;;
2020/05/30 08:51:26;;;;;;;5.8;3.5;;;;;;;14.2;54.52441;962.3694;;;;
2020/05/30 08:53:52;;;;;;;5.5;4.1;;;;;;;14.28;54.7666;962.3203;;;;
2020/05/30 08:56:17;;;;;;;6.9;4.6;;;;;;;14.38;54.7207;962.312;;;;
2020/05/30 08:58:42;;;;;;;6.1;4;;;;;;;14.58;54.16406;962.3279;;;;
2020/05/30 09:01:07;;;;;;;5.7;4;;;;;;;14.69;53.04004;962.3019;;;;
2020/05/30 09:03:33;;;;;;;4.8;2.8;;;;;;;14.7;52.01855;962.2575;;;;
2020/05/30 09:06:05;;;;;;;4.1;3.1;;;;;;;14.76;52.48926;962.2383;;;;
2020/05/30 09:08:44;;;;;;;4.3;3;;;;;;;14.8;52.06445;962.2089;;;;
2020/05/30 09:10:48;;;;;;;4.9;2.4;;;;;;;14.87;51.91016;962.2022;;;;
2020/05/30 09:13:19;;;;;;;4.7;2.1;;;;;;;14.79;52.38867;962.1835;;;;
2020/05/30 09:18:05;;;;;;;4.6;2;;;;;;;14.81;52.46094;962.1476;;;;
2020/05/30 09:20:39;;;;;;;2.8;1.4;;;;;;;14.72;51.26563;962.1003;;;;
2020/05/30 09:22:59;;;;;;;2.9;1.2;;;;;;;14.84;51.16309;962.065;;;;
2020/05/30 09:27:48;;;;;;;2.3;1.2;;;;;;;15.16;50.74805;961.9419;;;;
2020/05/30 09:35:06;;;;;;;3.1;1.5;;;;;;;15.31;50.08984;961.9409;;;;
2020/05/30 09:39:57;;;;;;;2.6;1.3;;;;;;;15.37;49.4209;961.8903;;;;
2020/05/30 09:42:23;;;;;;;3.4;1.5;;;;;;;15.36;50.53809;961.8878;;;;
2020/05/30 09:47:21;;;;;;;2.3;1.2;;;;;;;15.75;48.84668;961.8829;;;;
2020/05/30 09:49:41;;;;;;;3.7;1.1;;;;;;;15.81;49.16895;961.9192;;;;
2020/05/30 09:52:04;;;;;;;3.3;1.1;;;;;;;15.82;48.92578;961.8503;;;;
2020/05/30 09:54:40;;;;;;;2.2;1;;;;;;;15.85;47.33301;961.8535;;;;
2020/05/30 09:57:04;;;;;;;2.1;1.1;;;;;;;15.86;48.52246;961.8463;;;;
2020/05/30 10:01:41;;;;;;;2.4;1.2;;;;;;;16;47.32617;961.8159;;;;
2020/05/30 10:04:07;;;;;;;3.3;1;;;;;;;16.28;46.95996;961.7776;;;;
2020/05/30 10:06:32;;;;;;;3.6;1.1;;;;;;;16.26;45.89648;961.8293;;;;
2020/05/30 10:08:57;;;;;;;3;1.1;;;;;;;16.27;47.04004;961.8098;;;;
2020/05/30 10:11:22;;;;;;;2.8;1.1;;;;;;;16.18;46.10938;961.8226;;;;
2020/05/30 10:13:53;;;;;;;2.9;1.1;;;;;;;16.11;46.20703;961.7742;;;;
2020/05/30 10:16:34;;;;;;;2;1.1;;;;;;;16.19;45.04883;961.7678;;;;
2020/05/30 10:18:38;;;;;;;2.1;0.9;;;;;;;16.07;46.43555;961.7676;;;;
2020/05/30 10:21:03;;;;;;;1.7;0.9;;;;;;;16;45.40234;961.7123;;;;
2020/05/30 10:23:30;;;;;;;1.8;0.9;;;;;;;15.77;44.67871;961.6752;;;;
2020/05/30 10:26:07;;;;;;;2.6;1;;;;;;;15.84;44.44238;961.6833;;;;
2020/05/30 10:28:20;;;;;;;2;0.9;;;;;;;16.06;44.44141;961.6853;;;;
2020/05/30 10:30:46;;;;;;;1.8;0.8;;;;;;;16.31;44.49121;961.6469;;;;
2020/05/30 10:33:11;;;;;;;2.5;0.9;;;;;;;16.69;44.49316;961.6852;;;;
2020/05/30 10:35:54;;;;;;;3.1;1.2;;;;;;;16.75;43.48438;961.6211;;;;
2020/05/30 10:38:02;;;;;;;2.9;0.9;;;;;;;16.95;43.72559;961.7073;;;;
2020/05/30 10:40:28;;;;;;;1.7;1;;;;;;;16.95;45.57129;961.7319;;;;
2020/05/30 10:42:54;;;;;;;1.7;1;;;;;;;17.12;46.31348;961.7267;;;;
2020/05/30 10:45:20;;;;;;;2.7;1;;;;;;;17.28;43.2207;961.7408;;;;
2020/05/30 10:47:45;;;;;;;1.5;0.9;;;;;;;17.01;44.5498;961.6553;;;;
2020/05/30 10:50:10;;;;;;;1.8;0.9;;;;;;;16.86;43.44922;961.6761;;;;
2020/05/30 10:52:35;;;;;;;1.7;1.1;;;;;;;16.62;44.38184;961.6039;;;;
2020/05/30 10:55:00;;;;;;;3;1.2;;;;;;;16.4;45.49023;961.633;;;;
2020/05/30 10:57:26;;;;;;;3;1;;;;;;;16.33;45.30859;961.6394;;;;
2020/05/30 10:59:51;;;;;;;2.5;1;;;;;;;16.22;45.43652;961.6133;;;;
2020/05/30 11:02:16;;;;;;;2.4;1.1;;;;;;;16.13;45.36816;961.5795;;;;
2020/05/30 11:04:41;;;;;;;2.1;1;;;;;;;16.01;45.7998;961.5637;;;;
2020/05/30 11:07:10;;;;;;;2.4;1.2;;;;;;;15.87;45.95996;961.5709;;;;
2020/05/30 11:09:36;;;;;;;4.5;1;;;;;;;15.77;46.47363;961.5625;;;;
2020/05/30 11:12:03;;;;;;;3.6;1.1;;;;;;;15.85;46.85547;961.5707;;;;
2020/05/30 11:14:30;;;;;;;3.7;1.1;;;;;;;15.89;46.5791;961.5603;;;;
2020/05/30 11:17:01;;;;;;;3.4;1.1;;;;;;;15.95;46.36426;961.4905;;;;
2020/05/30 11:19:27;;;;;;;2.9;1;;;;;;;16.14;46.6875;961.5168;;;;
2020/05/30 11:21:52;;;;;;;2;1;;;;;;;16.15;46.79395;961.5636;;;;
2020/05/30 11:24:17;;;;;;;3.7;1.3;;;;;;;16.25;47.34082;961.5869;;;;
2020/05/30 11:26:42;;;;;;;3.2;1.2;;;;;;;16.36;46.99121;961.582;;;;
2020/05/30 11:29:08;;;;;;;2.4;1.2;;;;;;;16.24;46.79102;961.5999;;;;
2020/05/30 11:31:33;;;;;;;4;1.3;;;;;;;16.36;46.08203;961.5859;;;;
2020/05/30 11:33:58;;;;;;;2.1;1;;;;;;;16.29;46.2832;961.5884;;;;
2020/05/30 11:36:23;;;;;;;2.5;1.1;;;;;;;16.29;46.84375;961.5588;;;;
2020/05/30 11:38:48;;;;;;;2;1;;;;;;;16.37;46.68848;961.5499;;;;
2020/05/30 11:41:14;;;;;;;2.3;0.8;;;;;;;16.47;46;961.5711;;;;
2020/05/30 11:43:39;;;;;;;3.4;1.2;;;;;;;16.51;45.75977;961.558;;;;
2020/05/30 11:46:05;;;;;;;2.7;1;;;;;;;16.58;46.19727;961.562;;;;
2020/05/30 11:48:31;;;;;;;4.1;1.2;;;;;;;16.53;45.84277;961.5496;;;;
2020/05/30 11:50:57;;;;;;;2.4;1.2;;;;;;;16.27;47.35449;961.5769;;;;
2020/05/30 11:53:23;;;;;;;3.4;1.3;;;;;;;16.15;46.72266;961.525;;;;
2020/05/30 11:55:50;;;;;;;2.5;1.2;;;;;;;16.4;46.48242;961.5474;;;;
2020/05/30 11:58:16;;;;;;;3.9;1.2;;;;;;;16.32;46.75391;961.5325;;;;
2020/05/30 12:00:41;;;;;;;3.4;1.3;;;;;;;16.41;46.43652;961.497;;;;
2020/05/30 12:03:06;;;;;;;3.5;1.1;;;;;;;16.47;47.1084;961.5078;;;;
2020/05/30 12:05:31;;;;;;;3.3;1.3;;;;;;;16.29;48.68652;961.5449;;;;
2020/05/30 12:07:56;;;;;;;5;1.2;;;;;;;16.27;47.28418;961.5744;;;;
2020/05/30 12:10:25;;;;;;;4;1.2;;;;;;;16.41;47.06738;961.5324;;;;
2020/05/30 12:12:50;;;;;;;3.4;1.3;;;;;;;16.51;46.98438;961.5201;;;;
2020/05/30 12:15:19;;;;;;;3.5;1.3;;;;;;;16.42;48.24609;961.5269;;;;
2020/05/30 12:17:44;;;;;;;3.1;1.4;;;;;;;16.42;47.87207;961.5151;;;;
2020/05/30 12:20:09;;;;;;;3.4;1.2;;;;;;;16.52;48.4668;961.5061;;;;
2020/05/30 12:22:34;;;;;;;2.9;1.1;;;;;;;16.66;47.65332;961.4871;;;;
2020/05/30 12:25:00;;;;;;;3.1;1.4;;;;;;;16.52;46.97363;961.5176;;;;
2020/05/30 12:27:25;;;;;;;5;1.3;;;;;;;16.57;46.75586;961.538;;;;
2020/05/30 12:29:51;;;;;;;2.6;1.1;;;;;;;16.64;47.20801;961.5364;;;;
2020/05/30 12:32:16;;;;;;;2.9;1.2;;;;;;;16.57;47.08398;961.5075;;;;
2020/05/30 12:34:42;;;;;;;4.6;1.3;;;;;;;16.59;48.20605;961.5159;;;;
2020/05/30 12:37:07;;;;;;;5.5;1.5;;;;;;;16.26;48.66016;961.465;;;;
2020/05/30 12:39:32;;;;;;;2.7;1.6;;;;;;;16.35;47.67773;961.4709;;;;
2020/05/30 12:41:57;;;;;;;4;1.2;;;;;;;16.28;48.80078;961.4619;;;;
2020/05/30 12:44:22;;;;;;;3.8;1.5;;;;;;;16.42;48.08301;961.4026;;;;
2020/05/30 12:46:48;;;;;;;3.4;1.7;;;;;;;16.5;49.52637;961.395;;;;
2020/05/30 12:49:14;;;;;;;3.3;1.3;;;;;;;16.31;48.38477;961.3994;;;;
2020/05/30 12:51:39;;;;;;;4.7;1.5;;;;;;;16.24;48.72754;961.4183;;;;
2020/05/30 12:54:04;;;;;;;2.3;1.3;;;;;;;16.33;48.76074;961.3917;;;;
2020/05/30 12:57:33;;;;;;;5;1.9;;;;;;;16.11;49.20313;961.4125;;;;
2020/05/30 12:59:58;;;;;;;6.8;3.6;;;;;;;16.25;50.46582;961.387;;;;
2020/05/30 13:02:24;;;;;;;2.8;1.6;;;;;;;16.37;49.84961;961.3911;;;;
2020/05/30 13:04:49;;;;;;;4.7;1.8;;;;;;;16.31;49.35352;961.4216;;;;
2020/05/30 13:07:38;;;;;;;5.1;2;;;;;;;16.37;48.4502;961.3936;;;;
2020/05/30 13:09:41;;;;;;;4.1;1.6;;;;;;;16.53;47.52246;961.4057;;;;
2020/05/30 13:12:07;;;;;;;3.8;1.5;;;;;;;16.31;49.03809;961.3599;;;;
2020/05/30 13:14:32;;;;;;;3.4;1.4;;;;;;;16.2;48.04688;961.2924;;;;
2020/05/30 13:16:58;;;;;;;2.9;1.3;;;;;;;16.36;48.29688;961.3474;;;;
2020/05/30 13:19:23;;;;;;;2.7;1.4;;;;;;;16.62;47.20605;961.2919;;;;
2020/05/30 13:21:49;;;;;;;4.1;1.4;;;;;;;16.61;48.58105;961.2855;;;;
2020/05/30 13:24:14;;;;;;;2.3;1.2;;;;;;;16.51;47.42578;961.3267;;;;
2020/05/30 13:26:39;;;;;;;4.8;1.4;;;;;;;16.36;47.73828;961.3352;;;;
2020/05/30 13:29:04;;;;;;;3.5;1.4;;;;;;;16.46;47.60742;961.3599;;;;
2020/05/30 13:31:29;;;;;;;4.6;1.6;;;;;;;16.48;47.89063;961.3244;;;;
2020/05/30 13:33:55;;;;;;;3.9;1.3;;;;;;;16.42;47.76758;961.3638;;;;
2020/05/30 13:36:20;;;;;;;4.7;1.4;;;;;;;16.47;48.04102;961.335;;;;
2020/05/30 13:38:46;;;;;;;4.9;1.5;;;;;;;16.56;47.56055;961.3365;;;;
2020/05/30 13:41:11;;;;;;;5;1.6;;;;;;;16.26;48.22852;961.2899;;;;
2020/05/30 13:43:37;;;;;;;3.9;1.3;;;;;;;16.18;47.83496;961.2734;;;;
2020/05/30 13:46:02;;;;;;;3.5;1.2;;;;;;;16.12;48.7373;961.298;;;;
2020/05/30 13:48:27;;;;;;;3.2;1.4;;;;;;;16.32;47.68652;961.2661;;;;
2020/05/30 13:50:52;;;;;;;4.1;1.7;;;;;;;16.15;48.44922;961.2561;;;;
2020/05/30 13:53:17;;;;;;;4.1;1.3;;;;;;;16.12;48.39844;961.289;;;;
2020/05/30 13:55:43;;;;;;;3.2;1.3;;;;;;;16.1;48.33887;961.262;;;;
2020/05/30 13:58:08;;;;;;;5;1.4;;;;;;;16.29;48.00977;961.2668;;;;
2020/05/30 14:00:34;;;;;;;3.7;1.4;;;;;;;16.34;47.875;961.3073;;;;
2020/05/30 14:02:59;;;;;;;3.2;1.3;;;;;;;16.2;46.71777;961.3203;;;;
2020/05/30 14:05:25;;;;;;;2.4;1.2;;;;;;;16.06;47.11035;961.2717;;;;
2020/05/30 14:07:50;;;;;;;3.6;1.3;;;;;;;16.23;47.47852;961.2668;;;;
2020/05/30 14:10:16;;;;;;;4;1.4;;;;;;;16.18;47.36816;961.2545;;;;
2020/05/30 14:12:41;;;;;;;3.2;1.4;;;;;;;16.28;47.16895;961.2275;;;;
2020/05/30 14:15:08;;;;;;;3.9;1.3;;;;;;;16.16;47.45898;961.2769;;;;
2020/05/30 14:17:33;;;;;;;3.1;1.2;;;;;;;16.22;46.83594;961.3386;;;;
2020/05/30 14:19:59;;;;;;;4.3;1.5;;;;;;;15.92;47.51465;961.3491;;;;
2020/05/30 14:22:24;;;;;;;4.2;1.4;;;;;;;16.01;47.39551;961.3089;;;;
2020/05/30 14:24:50;;;;;;;3.6;1.2;;;;;;;15.67;47.81348;961.2019;;;;
2020/05/30 14:27:15;;;;;;;3.2;1.1;;;;;;;15.8;48.5498;961.2314;;;;
2020/05/30 14:29:40;;;;;;;4.1;1.2;;;;;;;16.05;47.54004;961.2825;;;;
2020/05/30 14:32:05;;;;;;;3.1;1.3;;;;;;;16.02;46.81543;961.252;;;;
2020/05/30 14:34:31;;;;;;;4.4;1.4;;;;;;;16.14;47.3291;961.2364;;;;
2020/05/30 14:36:56;;;;;;;4.2;1.1;;;;;;;15.85;47.76367;961.1926;;;;
2020/05/30 14:39:21;;;;;;;2.9;1.3;;;;;;;15.88;47.48633;961.1812;;;;
2020/05/30 14:41:46;;;;;;;2.5;1.3;;;;;;;16.11;47.09277;961.2076;;;;
2020/05/30 14:44:11;;;;;;;3.3;1.2;;;;;;;16.14;46.81641;961.2374;;;;
2020/05/30 14:46:37;;;;;;;2.4;1.1;;;;;;;16.2;47.06641;961.2192;;;;
2020/05/30 14:49:02;;;;;;;4.2;1.4;;;;;;;16.24;46.76855;961.2405;;;;
2020/05/30 14:51:27;;;;;;;3.7;1.4;;;;;;;16.1;47.81445;961.2177;;;;
2020/05/30 14:53:52;;;;;;;3.2;1.5;;;;;;;16.22;46.64844;961.2449;;;;
2020/05/30 14:56:17;;;;;;;4.5;1.5;;;;;;;16.06;47.14551;961.1665;;;;
2020/05/30 14:58:43;;;;;;;3.6;1.4;;;;;;;16.16;46.81738;961.1683;;;;
2020/05/30 15:01:08;;;;;;;3.4;1.2;;;;;;;16.22;46.125;961.1485;;;;
2020/05/30 15:03:33;;;;;;;3.2;1.4;;;;;;;16.34;46.20801;961.1591;;;;
2020/05/30 15:05:58;;;;;;;4.3;1.4;;;;;;;16.25;47.06055;961.1206;;;;
2020/05/30 15:08:24;;;;;;;2.8;1.2;;;;;;;16.24;47.21094;961.1031;;;;
2020/05/30 15:10:49;;;;;;;4.1;1.6;;;;;;;16.23;47.65234;961.0555;;;;
2020/05/30 15:13:14;;;;;;;3.3;1.3;;;;;;;16.14;47.93457;961.0703;;;;
2020/05/30 15:15:41;;;;;;;5.3;1.3;;;;;;;16.21;47.7793;961.0793;;;;
2020/05/30 15:18:06;;;;;;;3.7;1.5;;;;;;;16.12;47.93262;961.0886;;;;
2020/05/30 15:20:32;;;;;;;3.8;1.4;;;;;;;16.14;47.71387;961.0884;;;;
2020/05/30 15:22:57;;;;;;;4.6;1.4;;;;;;;16.23;47.89844;961.0941;;;;
2020/05/30 15:25:23;;;;;;;4.8;1.4;;;;;;;16.28;47.00586;961.1066;;;;
2020/05/30 15:27:48;;;;;;;2.5;1.2;;;;;;;16.15;47.16797;961.0377;;;;
2020/05/30 15:30:14;;;;;;;4.3;1.2;;;;;;;16.25;47.36426;961.0186;;;;
2020/05/30 15:32:39;;;;;;;3.7;1.5;;;;;;;16.33;46.97559;961.0356;;;;
2020/05/30 15:35:06;;;;;;;4.2;1.6;;;;;;;16.38;47.37695;961.0521;;;;
2020/05/30 15:37:31;;;;;;;3.1;1.4;;;;;;;16.35;46.97754;961.0184;;;;
2020/05/30 15:39:56;;;;;;;5.1;1.6;;;;;;;16.51;47.07715;961.0082;;;;
2020/05/30 15:42:21;;;;;;;3.1;1.3;;;;;;;16.3;47.28809;960.9922;;;;
2020/05/30 15:44:46;;;;;;;2.6;1.2;;;;;;;16.3;47.70801;960.9945;;;;
2020/05/30 15:47:11;;;;;;;4.4;1.2;;;;;;;16.48;46.98047;960.9888;;;;
2020/05/30 15:49:37;;;;;;;5;1.3;;;;;;;16.57;46.69727;960.9917;;;;
2020/05/30 15:52:02;;;;;;;5.6;1.6;;;;;;;16.75;46.78809;960.9396;;;;
2020/05/30 15:54:27;;;;;;;3.6;1.5;;;;;;;16.77;46.52148;960.9347;;;;
2020/05/30 15:56:53;;;;;;;3.1;1.4;;;;;;;16.7;47.22656;960.9265;;;;
2020/05/30 15:59:18;;;;;;;3;1.2;;;;;;;16.63;47.39355;960.8724;;;;
2020/05/30 16:01:47;;;;;;;3.3;1.4;;;;;;;16.76;47.06836;960.8699;;;;
2020/05/30 16:04:12;;;;;;;4.4;1.3;;;;;;;16.72;48.10254;960.8613;;;;
2020/05/30 16:06:37;;;;;;;2.8;1.4;;;;;;;16.55;47.74707;960.9269;;;;
2020/05/30 16:09:04;;;;;;;4.6;1.4;;;;;;;16.66;47.73535;960.9191;;;;
2020/05/30 16:12:32;;;;;;;4.3;1.4;;;;;;;16.77;47.93359;960.8829;;;;
2020/05/30 16:14:57;;;;;;;3.8;1.3;;;;;;;16.62;48.13867;960.8731;;;;
2020/05/30 16:17:33;;;;;;;3.6;1.5;;;;;;;16.49;48.49805;960.8702;;;;
2020/05/30 16:19:58;;;;;;;5;1.4;;;;;;;16.76;47.89746;960.92;;;;
2020/05/30 16:22:23;;;;;;;3.4;1.4;;;;;;;16.72;48.71094;960.9109;;;;
2020/05/30 16:24:51;;;;;;;4.7;1.5;;;;;;;16.4;47.4502;960.9272;;;;
2020/05/30 16:27:16;;;;;;;3;1.2;;;;;;;16.4;47.18164;960.9008;;;;